createdAt,value
2023-05-12T00:01:36.783Z,3.58
2023-05-12T00:04:03.758Z,3.58
2023-05-12T00:06:31.219Z,3.92
2023-05-12T00:08:58.095Z,4.22
2023-05-12T00:11:25.069Z,2.90
2023-05-12T00:13:52.282Z,3.50
2023-05-12T00:16:22.268Z,4.65
2023-05-12T00:18:52.276Z,3.78
2023-05-12T00:21:20.389Z,4.80
2023-05-12T00:23:47.154Z,3.35
2023-05-12T00:26:13.906Z,3.50
2023-05-12T00:28:40.675Z,4.40
2023-05-12T00:31:07.460Z,3.60
2023-05-12T00:33:34.409Z,4.47
2023-05-12T00:36:04.320Z,3.85
2023-05-12T00:38:31.031Z,4.82
2023-05-12T00:40:57.794Z,3.83
2023-05-12T00:43:25.264Z,3.22
2023-05-12T00:45:52.580Z,3.75
2023-05-12T00:48:23.759Z,3.05
2023-05-12T00:50:50.478Z,2.92
2023-05-12T00:53:19.493Z,3.08
2023-05-12T00:55:46.464Z,4.13
2023-05-12T00:58:14.006Z,3.47
2023-05-12T01:00:40.710Z,2.90
2023-05-12T01:03:08.445Z,2.83
2023-05-12T01:05:43.160Z,2.90
2023-05-12T01:08:12.205Z,2.80
2023-05-12T01:10:48.006Z,2.78
2023-05-12T01:13:14.892Z,2.50
2023-05-12T01:15:46.538Z,2.50
2023-05-12T01:20:43.074Z,2.70
2023-05-12T01:23:10.357Z,1.75
2023-05-12T01:25:39.474Z,1.90
2023-05-12T01:28:08.389Z,1.88
2023-05-12T01:30:36.620Z,1.23
2023-05-12T01:33:03.472Z,1.55
2023-05-12T01:35:30.323Z,1.50
2023-05-12T01:37:57.030Z,1.17
2023-05-12T01:40:24.173Z,1.15
2023-05-12T01:42:51.031Z,0.75
2023-05-12T01:45:19.226Z,0.90
2023-05-12T01:47:45.968Z,0.80
2023-05-12T01:50:15.913Z,1.20
2023-05-12T01:52:46.625Z,0.85
2023-05-12T01:55:13.672Z,0.77
2023-05-12T01:57:41.520Z,1.35
2023-05-12T02:00:11.009Z,0.80
2023-05-12T02:02:40.887Z,1.02
2023-05-12T02:05:10.293Z,0.95
2023-05-12T02:07:44.019Z,1.20
2023-05-12T02:10:12.719Z,1.48
2023-05-12T02:12:40.965Z,1.45
2023-05-12T02:15:08.554Z,2.00
2023-05-12T02:17:36.656Z,1.73
2023-05-12T02:20:07.150Z,2.17
2023-05-12T02:22:33.863Z,1.85
2023-05-12T02:25:15.919Z,2.00
2023-05-12T02:27:45.034Z,2.17
2023-05-12T02:30:12.184Z,2.20
2023-05-12T02:32:40.136Z,3.08
2023-05-12T02:35:09.346Z,2.78
2023-05-12T02:37:38.290Z,2.80
2023-05-12T02:40:06.475Z,2.70
2023-05-12T02:42:36.571Z,2.83
2023-05-12T02:45:03.625Z,2.70
2023-05-12T02:47:33.229Z,3.13
2023-05-12T02:50:01.249Z,3.38
2023-05-12T02:52:29.491Z,4.55
2023-05-12T02:54:57.276Z,3.37
2023-05-12T02:57:24.216Z,4.50
2023-05-12T02:59:51.053Z,3.70
2023-05-12T03:02:17.928Z,3.95
2023-05-12T03:04:44.710Z,4.13
2023-05-12T03:07:11.911Z,4.25
2023-05-12T03:09:40.179Z,4.50
2023-05-12T03:12:08.213Z,4.93
2023-05-12T03:14:35.190Z,4.45
2023-05-12T03:17:02.123Z,4.50
2023-05-12T03:19:28.961Z,3.88
2023-05-12T03:21:55.807Z,4.53
2023-05-12T03:24:22.661Z,3.83
2023-05-12T03:26:50.667Z,4.22
2023-05-12T03:29:55.338Z,5.13
2023-05-12T03:32:23.357Z,4.80
2023-05-12T03:34:50.033Z,4.55
2023-05-12T03:37:17.093Z,4.50
2023-05-12T03:39:43.837Z,5.10
2023-05-12T03:42:12.185Z,6.22
2023-05-12T03:44:39.057Z,5.30
2023-05-12T03:47:06.155Z,6.55
2023-05-12T03:49:33.092Z,6.82
2023-05-12T03:51:59.786Z,4.88
2023-05-12T03:54:26.652Z,6.32
2023-05-12T03:56:53.802Z,6.45
2023-05-12T03:59:21.899Z,6.68
2023-05-12T04:01:48.666Z,6.95
2023-05-12T04:04:15.699Z,6.47
2023-05-12T04:06:42.872Z,5.50
2023-05-12T04:09:10.366Z,7.20
2023-05-12T04:11:40.274Z,7.07
2023-05-12T04:14:07.298Z,6.97
2023-05-12T04:16:36.033Z,6.03
2023-05-12T04:19:03.689Z,6.53
2023-05-12T04:21:31.615Z,5.55
2023-05-12T04:23:58.453Z,6.10
2023-05-12T04:26:26.944Z,6.03
2023-05-12T04:28:57.062Z,7.03
2023-05-12T04:31:26.949Z,7.63
2023-05-12T04:33:56.817Z,7.95
2023-05-12T04:36:23.661Z,7.03
2023-05-12T04:38:50.441Z,6.68
2023-05-12T04:41:18.167Z,6.10
2023-05-12T04:46:14.942Z,6.45
2023-05-12T04:48:43.578Z,7.88
2023-05-12T04:51:11.816Z,8.30
2023-05-12T04:53:39.805Z,8.77
2023-05-12T04:56:07.315Z,8.77
2023-05-12T04:58:34.091Z,8.20
2023-05-12T05:01:00.951Z,8.57
2023-05-12T05:03:28.189Z,9.00
2023-05-12T05:05:54.968Z,8.57
2023-05-12T05:08:23.188Z,9.07
2023-05-12T05:10:49.883Z,7.70
2023-05-12T05:13:16.634Z,7.88
2023-05-12T05:15:50.241Z,8.52
2023-05-12T05:18:17.250Z,8.98
2023-05-12T05:20:57.988Z,8.32
2023-05-12T05:23:27.156Z,7.78
2023-05-12T05:25:54.045Z,7.10
2023-05-12T05:28:20.914Z,8.85
2023-05-12T05:30:47.615Z,9.15
2023-05-12T05:33:14.297Z,8.48
2023-05-12T05:35:42.593Z,8.07
2023-05-12T05:38:09.709Z,8.43
2023-05-12T05:40:49.227Z,7.43
2023-05-12T05:43:20.660Z,8.35
2023-05-12T05:45:49.754Z,7.95
2023-05-12T05:48:16.721Z,9.25
2023-05-12T05:50:43.661Z,9.02
2023-05-12T05:53:10.398Z,8.18
2023-05-12T05:55:38.429Z,8.75
2023-05-12T05:58:05.613Z,8.13
2023-05-12T06:00:32.352Z,9.25
2023-05-12T06:02:59.202Z,8.75
2023-05-12T06:05:26.032Z,8.18
2023-05-12T06:07:52.986Z,9.23
2023-05-12T06:10:20.049Z,8.65
2023-05-12T06:12:48.346Z,10.48
2023-05-12T06:15:15.017Z,8.68
2023-05-12T06:17:41.978Z,7.97
2023-05-12T06:20:10.798Z,8.07
2023-05-12T06:22:38.754Z,8.70
2023-05-12T06:25:06.557Z,8.57
2023-05-12T06:27:33.673Z,10.70
2023-05-12T06:30:01.716Z,9.07
2023-05-12T06:32:28.440Z,10.25
2023-05-12T06:34:55.288Z,7.90
2023-05-12T06:37:22.026Z,9.68
2023-05-12T06:39:48.961Z,8.75
2023-05-12T06:42:15.925Z,8.85
2023-05-12T06:44:42.718Z,7.53
2023-05-12T06:47:10.828Z,8.23
2023-05-12T06:49:38.834Z,8.60
2023-05-12T06:52:06.615Z,8.52
2023-05-12T06:54:33.869Z,8.63
2023-05-12T06:57:01.027Z,8.80
2023-05-12T06:59:27.960Z,7.70
2023-05-12T07:01:54.941Z,8.32
2023-05-12T07:04:23.671Z,8.18
2023-05-12T07:06:52.053Z,8.60
2023-05-12T07:09:18.878Z,6.93
2023-05-12T07:11:45.729Z,8.07
2023-05-12T07:14:12.418Z,8.18
2023-05-12T07:16:39.169Z,8.40
2023-05-12T07:19:09.179Z,6.28
2023-05-12T07:21:37.479Z,6.47
2023-05-12T07:24:06.088Z,6.15
2023-05-12T07:26:33.500Z,5.57
2023-05-12T07:29:01.663Z,5.85
2023-05-12T07:31:28.842Z,5.75
2023-05-12T07:33:56.263Z,6.05
2023-05-12T07:36:23.173Z,5.07
2023-05-12T07:38:51.207Z,5.57
2023-05-12T07:41:18.133Z,5.38
2023-05-12T07:43:44.817Z,6.00
2023-05-12T07:46:13.901Z,6.90
2023-05-12T07:48:40.765Z,6.25
2023-05-12T07:51:08.010Z,6.50
2023-05-12T07:53:35.657Z,5.55
2023-05-12T07:56:08.280Z,5.65
2023-05-12T07:58:35.000Z,5.15
2023-05-12T08:01:05.936Z,5.57
2023-05-12T08:03:32.841Z,5.47
2023-05-12T08:05:59.567Z,5.05
2023-05-12T08:08:26.266Z,5.28
2023-05-12T08:10:53.110Z,5.40
2023-05-12T08:13:21.646Z,5.95
2023-05-12T08:15:50.053Z,5.82
2023-05-12T08:18:16.840Z,5.38
2023-05-12T08:20:43.855Z,4.50
2023-05-12T08:23:11.738Z,4.57
2023-05-12T08:25:38.677Z,4.10
2023-05-12T08:28:05.425Z,4.00
2023-05-12T08:30:33.719Z,4.10
2023-05-12T08:33:01.386Z,4.05
2023-05-12T08:35:28.279Z,4.88
2023-05-12T08:37:55.185Z,3.95
2023-05-12T08:40:23.340Z,4.18
2023-05-12T08:42:58.331Z,3.55
2023-05-12T08:45:26.094Z,4.07
2023-05-12T08:47:55.633Z,3.70
2023-05-12T08:50:23.619Z,3.67
2023-05-12T08:52:51.497Z,3.40
2023-05-12T08:55:21.248Z,3.17
2023-05-12T08:57:48.965Z,3.22
2023-05-12T09:00:20.139Z,2.65
2023-05-12T09:05:23.362Z,1.80
2023-05-12T09:07:51.826Z,2.72
2023-05-12T09:10:33.704Z,2.15
2023-05-12T09:13:04.808Z,2.50
2023-05-12T09:15:39.536Z,2.20
2023-05-12T09:18:06.687Z,2.47
2023-05-12T09:20:35.590Z,1.95
2023-05-12T09:23:16.271Z,1.50
2023-05-12T09:26:21.538Z,1.77
2023-05-12T09:28:51.139Z,1.40
2023-05-12T09:31:21.648Z,1.80
2023-05-12T09:33:49.540Z,1.05
2023-05-12T09:36:25.759Z,1.85
2023-05-12T09:39:04.452Z,1.50
2023-05-12T09:41:36.872Z,1.98
2023-05-12T09:44:07.156Z,1.20
2023-05-12T09:46:38.536Z,1.30
2023-05-12T09:51:33.991Z,1.38
2023-05-12T09:54:02.274Z,2.00
2023-05-12T09:56:31.613Z,1.50
2023-05-12T09:59:02.301Z,1.55
2023-05-12T10:01:39.259Z,1.10
2023-05-12T10:04:11.018Z,1.60
2023-05-12T10:06:45.623Z,1.35
2023-05-12T10:09:22.277Z,1.38
2023-05-12T10:11:53.466Z,1.50
2023-05-12T10:14:24.808Z,1.88
2023-05-12T10:16:52.251Z,1.30
2023-05-12T10:19:21.110Z,1.80
2023-05-12T10:21:50.702Z,1.63
2023-05-12T10:24:18.427Z,1.92
2023-05-12T10:26:53.989Z,1.52
2023-05-12T10:29:22.070Z,1.30
2023-05-12T10:31:52.747Z,1.73
2023-05-12T10:34:19.559Z,1.50
2023-05-12T10:36:49.311Z,1.67
2023-05-12T10:39:17.638Z,1.65
2023-05-12T10:41:44.496Z,1.75
2023-05-12T10:44:12.195Z,1.90
2023-05-12T10:46:40.203Z,2.13
2023-05-12T10:49:08.811Z,1.50
2023-05-12T10:51:49.637Z,1.60
2023-05-12T10:54:30.034Z,1.50
2023-05-12T10:56:59.924Z,1.42
2023-05-12T10:59:27.443Z,1.42
2023-05-12T11:02:01.559Z,1.88
2023-05-12T11:04:44.620Z,1.67
2023-05-12T11:07:16.341Z,1.50
2023-05-12T11:12:16.302Z,1.55
2023-05-12T11:14:46.945Z,1.85
2023-05-12T11:17:15.310Z,1.30
2023-05-12T11:19:48.233Z,1.48
2023-05-12T11:22:18.460Z,1.40
2023-05-12T11:24:47.325Z,1.42
2023-05-12T11:27:15.554Z,1.80
2023-05-12T11:29:43.613Z,1.38
2023-05-12T11:32:14.775Z,1.60
2023-05-12T11:34:41.633Z,3.38
2023-05-12T11:37:08.377Z,3.08
2023-05-12T11:39:36.436Z,1.80
2023-05-12T11:42:12.749Z,2.22
2023-05-12T11:44:47.177Z,1.80
2023-05-12T11:47:17.985Z,2.42
2023-05-12T11:49:50.056Z,1.38
2023-05-12T11:52:17.707Z,1.83
2023-05-12T11:54:51.825Z,1.80
2023-05-12T11:57:28.594Z,1.70
2023-05-12T12:00:00.805Z,1.70
2023-05-12T12:02:29.086Z,1.80
2023-05-12T12:04:56.553Z,1.90
2023-05-12T12:07:32.149Z,1.90
2023-05-12T12:09:59.579Z,1.85
2023-05-12T12:12:30.583Z,2.03
2023-05-12T12:15:00.293Z,1.55
2023-05-12T12:17:30.983Z,1.70
2023-05-12T12:19:58.898Z,1.80
2023-05-12T12:22:25.766Z,1.23
2023-05-12T12:24:54.181Z,1.60
2023-05-12T12:27:21.451Z,1.88
2023-05-12T12:29:52.769Z,1.63
2023-05-12T12:32:22.911Z,1.88
2023-05-12T12:34:50.029Z,1.83
2023-05-12T12:37:17.252Z,1.70
2023-05-12T12:39:44.123Z,1.45
2023-05-12T12:42:13.404Z,1.17
2023-05-12T12:44:40.772Z,1.95
2023-05-12T12:47:12.087Z,1.75
2023-05-12T12:49:38.978Z,1.70
2023-05-12T12:52:07.044Z,1.77
2023-05-12T12:54:34.276Z,2.08
2023-05-12T12:57:03.607Z,2.28
2023-05-12T12:59:30.504Z,1.90
2023-05-12T13:02:00.206Z,1.70
2023-05-12T13:04:28.950Z,1.90
2023-05-12T13:06:56.484Z,1.90
2023-05-12T13:09:23.225Z,1.92
2023-05-12T13:11:51.316Z,1.95
2023-05-12T13:14:18.229Z,1.60
2023-05-12T13:16:45.630Z,1.77
2023-05-12T13:19:12.552Z,1.60
2023-05-12T13:21:41.230Z,1.90
2023-05-12T13:24:08.474Z,1.90
2023-05-12T13:26:35.233Z,2.10
2023-05-12T13:29:05.030Z,2.10
2023-05-12T13:31:32.056Z,1.60
2023-05-12T13:33:58.802Z,1.98
2023-05-12T13:36:25.570Z,1.88
2023-05-12T13:38:53.682Z,1.95
2023-05-12T13:41:20.655Z,1.83
2023-05-12T13:43:48.256Z,1.95
2023-05-12T13:46:15.152Z,1.70
2023-05-12T13:48:41.925Z,2.08
2023-05-12T13:51:08.680Z,1.98
2023-05-12T13:53:38.589Z,2.17
2023-05-12T13:56:08.075Z,1.70
2023-05-12T13:58:35.129Z,1.80
2023-05-12T14:01:12.655Z,1.77
2023-05-12T14:03:40.319Z,1.75
2023-05-12T14:06:07.356Z,1.95
2023-05-12T14:08:34.050Z,2.25
2023-05-12T14:11:01.566Z,2.20
2023-05-12T14:13:30.011Z,2.40
2023-05-12T14:15:57.067Z,1.70
2023-05-12T14:18:27.642Z,2.58
2023-05-12T14:20:54.868Z,2.15
2023-05-12T14:23:21.551Z,2.15
2023-05-12T14:25:48.347Z,2.60
2023-05-12T14:28:15.126Z,2.30
2023-05-12T14:30:45.173Z,2.28
2023-05-12T14:33:12.185Z,2.28
2023-05-12T14:35:38.938Z,1.73
2023-05-12T14:38:05.825Z,2.30
2023-05-12T14:40:35.533Z,2.20
2023-05-12T14:43:03.618Z,2.10
2023-05-12T14:45:31.788Z,2.17
2023-05-12T14:47:59.892Z,2.20
2023-05-12T14:50:28.268Z,2.05
2023-05-12T14:52:55.225Z,1.90
2023-05-12T14:55:22.175Z,2.10
2023-05-12T14:57:49.629Z,2.00
2023-05-12T15:00:18.336Z,2.25
2023-05-12T15:02:45.597Z,1.60
2023-05-12T15:05:14.044Z,2.00
2023-05-12T15:07:41.405Z,1.83
2023-05-12T15:10:08.624Z,2.20
2023-05-12T15:12:35.271Z,2.05
2023-05-12T15:15:04.783Z,2.00
2023-05-12T15:17:32.657Z,2.20
2023-05-12T15:19:59.342Z,1.90
2023-05-12T15:22:31.277Z,2.50
2023-05-12T15:24:58.073Z,1.83
2023-05-12T15:27:25.247Z,2.17
2023-05-12T15:29:51.945Z,2.22
2023-05-12T15:32:18.764Z,2.10
2023-05-12T15:34:45.657Z,2.05
2023-05-12T15:37:12.423Z,2.03
2023-05-12T15:39:40.865Z,2.20
2023-05-12T15:42:08.549Z,2.38
2023-05-12T15:44:35.520Z,2.22
2023-05-12T15:47:02.366Z,2.08
2023-05-12T15:49:31.985Z,2.22
2023-05-12T15:51:58.655Z,2.10
2023-05-12T15:54:26.566Z,2.17
2023-05-12T15:56:54.711Z,2.28
2023-05-12T15:59:21.638Z,2.50
2023-05-12T16:01:48.502Z,1.58
2023-05-12T16:04:15.288Z,2.15
2023-05-12T16:06:42.069Z,2.30
2023-05-12T16:09:09.676Z,2.47
2023-05-12T16:11:36.338Z,2.63
2023-05-12T16:14:04.529Z,2.58
2023-05-12T16:16:31.278Z,2.00
2023-05-12T16:18:58.012Z,2.40
2023-05-12T16:21:25.071Z,2.30
2023-05-12T16:23:51.762Z,2.03
2023-05-12T16:26:19.357Z,2.10
2023-05-12T16:28:46.350Z,2.63
2023-05-12T16:31:20.043Z,2.53
2023-05-12T16:33:46.895Z,2.50
2023-05-12T16:36:15.334Z,2.40
2023-05-12T16:38:42.878Z,2.00
2023-05-12T16:41:09.612Z,2.10
2023-05-12T16:43:37.446Z,1.83
2023-05-12T16:46:04.445Z,2.03
2023-05-12T16:48:36.283Z,1.80
2023-05-12T16:51:05.767Z,1.77
2023-05-12T16:53:32.745Z,1.90
2023-05-12T16:55:59.905Z,1.92
2023-05-12T16:58:33.755Z,1.55
2023-05-12T17:01:01.692Z,1.88
2023-05-12T17:03:28.948Z,1.67
2023-05-12T17:05:59.034Z,1.80
2023-05-12T17:08:25.730Z,1.50
2023-05-12T17:10:52.585Z,1.40
2023-05-12T17:13:19.349Z,1.70
2023-05-12T17:15:46.426Z,1.30
2023-05-12T17:18:13.310Z,1.60
2023-05-12T17:20:40.769Z,1.70
2023-05-12T17:23:09.222Z,1.67
2023-05-12T17:25:36.670Z,1.10
2023-05-12T17:28:04.464Z,1.55
2023-05-12T17:30:31.151Z,1.60
2023-05-12T17:32:57.991Z,1.52
2023-05-12T17:35:24.764Z,1.48
2023-05-12T17:37:52.978Z,1.48
2023-05-12T17:40:21.775Z,1.20
2023-05-12T17:42:50.266Z,1.42
2023-05-12T17:45:17.813Z,1.52
2023-05-12T17:47:45.065Z,1.23
2023-05-12T17:50:13.930Z,1.58
2023-05-12T17:52:41.159Z,1.27
2023-05-12T17:55:08.990Z,1.30
2023-05-12T17:57:37.074Z,1.48
2023-05-12T18:00:10.431Z,1.50
2023-05-12T18:02:37.949Z,1.55
2023-05-12T18:05:05.879Z,1.38
2023-05-12T18:07:32.840Z,1.55
2023-05-12T18:09:59.798Z,1.50
2023-05-12T18:12:26.948Z,1.70
2023-05-12T18:14:55.004Z,1.70
2023-05-12T18:17:22.053Z,1.75
2023-05-12T18:19:48.976Z,1.83
2023-05-12T18:22:16.935Z,2.35
2023-05-12T18:24:43.652Z,2.40
2023-05-12T18:27:10.624Z,2.45
2023-05-12T18:29:37.398Z,1.90
2023-05-12T18:32:05.835Z,2.17
2023-05-12T18:34:32.709Z,2.05
2023-05-12T18:36:59.482Z,1.90
2023-05-12T18:39:26.942Z,2.00
2023-05-12T18:41:53.786Z,1.98
2023-05-12T18:44:20.629Z,1.67
2023-05-12T18:46:47.605Z,2.70
2023-05-12T18:49:15.855Z,2.53
2023-05-12T18:51:42.807Z,2.33
2023-05-12T18:54:09.658Z,2.60
2023-05-12T18:56:37.046Z,2.90
2023-05-12T18:59:03.818Z,2.65
2023-05-12T19:01:31.560Z,3.28
2023-05-12T19:03:58.540Z,3.00
2023-05-12T19:06:26.809Z,2.40
2023-05-12T19:08:53.620Z,2.70
2023-05-12T19:11:20.520Z,2.67
2023-05-12T19:13:49.299Z,2.70
2023-05-12T19:16:16.108Z,2.25
2023-05-12T19:18:43.099Z,2.65
2023-05-12T19:21:10.229Z,2.88
2023-05-12T19:23:38.409Z,2.55
2023-05-12T19:26:07.164Z,2.60
2023-05-12T19:28:35.038Z,2.45
2023-05-12T19:31:03.582Z,2.85
2023-05-12T19:33:33.815Z,2.90
2023-05-12T19:36:00.708Z,2.63
2023-05-12T19:38:27.642Z,2.70
2023-05-12T19:40:59.093Z,2.80
2023-05-12T19:43:25.896Z,3.00
2023-05-12T19:45:56.921Z,3.15
2023-05-12T19:48:23.737Z,3.10
2023-05-12T19:50:51.762Z,3.33
2023-05-12T19:53:21.533Z,3.17
2023-05-12T19:55:53.884Z,3.38
2023-05-12T19:58:22.020Z,2.80
2023-05-12T20:00:51.428Z,2.95
2023-05-12T20:03:18.946Z,2.85
2023-05-12T20:05:48.437Z,3.05
2023-05-12T20:08:15.350Z,2.83
2023-05-12T20:10:43.389Z,2.95
2023-05-12T20:13:10.481Z,3.08
2023-05-12T20:15:44.177Z,3.78
2023-05-12T20:18:14.681Z,3.75
2023-05-12T20:20:42.352Z,3.70
2023-05-12T20:23:12.190Z,3.50
2023-05-12T20:25:39.078Z,3.90
2023-05-12T20:28:07.083Z,3.40
2023-05-12T20:30:35.749Z,2.55
2023-05-12T20:33:04.867Z,3.15
2023-05-12T20:35:33.562Z,3.58
2023-05-12T20:38:00.307Z,3.80
2023-05-12T20:40:27.084Z,3.38
2023-05-12T20:42:53.880Z,3.65
2023-05-12T20:45:21.120Z,3.75
2023-05-12T20:47:48.198Z,3.50
2023-05-12T20:50:17.002Z,3.80
2023-05-12T20:52:45.648Z,3.95
2023-05-12T20:55:12.420Z,4.05
2023-05-12T20:57:40.185Z,4.43
2023-05-12T21:00:10.317Z,3.70
2023-05-12T21:02:37.814Z,4.15
2023-05-12T21:05:06.072Z,3.53
2023-05-12T21:07:35.221Z,2.63
2023-05-12T21:10:03.549Z,3.70
2023-05-12T21:12:30.388Z,3.60
2023-05-12T21:14:57.316Z,3.40
2023-05-12T21:17:24.004Z,3.63
2023-05-12T21:19:50.962Z,3.42
2023-05-12T21:22:17.809Z,2.85
2023-05-12T21:24:51.011Z,3.10
2023-05-12T21:27:21.135Z,2.63
2023-05-12T21:29:47.997Z,3.83
2023-05-12T21:32:16.958Z,2.55
2023-05-12T21:34:45.508Z,3.15
2023-05-12T21:37:12.282Z,3.05
2023-05-12T21:39:39.218Z,3.50
2023-05-12T21:42:07.748Z,2.65
2023-05-12T21:44:34.635Z,3.13
2023-05-12T21:47:03.946Z,3.42
2023-05-12T21:49:31.924Z,2.70
2023-05-12T21:51:58.775Z,3.38
2023-05-12T21:54:25.740Z,2.78
2023-05-12T21:56:52.619Z,3.03
2023-05-12T21:59:20.837Z,2.80
2023-05-12T22:01:48.029Z,2.70
2023-05-12T22:04:15.055Z,3.15
2023-05-12T22:06:42.218Z,2.50
2023-05-12T22:09:09.194Z,2.72
2023-05-12T22:11:36.221Z,2.38
2023-05-12T22:14:03.046Z,3.08
2023-05-12T22:16:40.846Z,2.20
2023-05-12T22:19:08.934Z,2.85
2023-05-12T22:21:36.202Z,2.15
2023-05-12T22:24:03.122Z,2.67
2023-05-12T22:26:29.956Z,2.85
2023-05-12T22:28:56.732Z,2.20
2023-05-12T22:31:23.670Z,1.83
2023-05-12T22:33:51.896Z,2.60
2023-05-12T22:36:18.667Z,2.63
2023-05-12T22:38:46.352Z,2.03
2023-05-12T22:41:16.034Z,2.28
2023-05-12T22:43:42.673Z,2.35
2023-05-12T22:46:09.695Z,2.10
2023-05-12T22:48:39.553Z,2.30
2023-05-12T22:51:10.493Z,2.08
2023-05-12T22:53:37.863Z,1.75
2023-05-12T22:56:05.013Z,1.85
2023-05-12T22:58:31.708Z,2.17
2023-05-12T23:00:58.531Z,2.00
2023-05-12T23:03:25.942Z,1.98
2023-05-12T23:05:52.655Z,2.13
2023-05-12T23:08:20.801Z,2.10
2023-05-12T23:10:47.488Z,2.05
2023-05-12T23:13:14.155Z,1.90
2023-05-12T23:15:41.256Z,2.00
2023-05-12T23:18:08.246Z,1.48
2023-05-12T23:20:35.528Z,2.28
2023-05-12T23:23:02.531Z,2.20
2023-05-12T23:25:30.646Z,2.05
2023-05-12T23:27:57.496Z,1.75
2023-05-12T23:30:25.194Z,2.15
2023-05-12T23:32:52.001Z,2.08
2023-05-12T23:35:56.383Z,2.47
2023-05-12T23:38:23.034Z,2.75
2023-05-12T23:40:50.995Z,1.98
2023-05-12T23:43:18.035Z,2.25
2023-05-12T23:45:45.566Z,2.60
2023-05-12T23:48:12.507Z,1.88
2023-05-12T23:50:39.417Z,2.28
2023-05-12T23:53:06.157Z,2.40
2023-05-12T23:55:33.208Z,2.42
2023-05-12T23:58:02.531Z,1.60
